createdAt,value
2022-09-12T00:00:12.392Z,11.85
2022-09-12T00:00:50.609Z,11.80
2022-09-12T00:01:28.466Z,12.57
2022-09-12T00:02:04.937Z,12.90
2022-09-12T00:03:12.560Z,12.85
2022-09-12T00:03:50.212Z,12.32
2022-09-12T00:04:26.954Z,12.52
2022-09-12T00:05:01.474Z,12.52
2022-09-12T00:05:46.403Z,11.65
2022-09-12T00:06:34.353Z,12.13
2022-09-12T00:07:17.762Z,12.32
2022-09-12T00:07:51.770Z,12.38
2022-09-12T00:08:25.412Z,13.25
2022-09-12T00:09:03.997Z,13.07
2022-09-12T00:09:38.441Z,11.90
2022-09-12T00:10:14.489Z,12.57
2022-09-12T00:10:56.434Z,12.73
2022-09-12T00:11:28.511Z,13.35
2022-09-12T00:12:02.679Z,11.50
2022-09-12T00:12:47.781Z,12.00
2022-09-12T00:13:19.304Z,12.68
2022-09-12T00:13:50.860Z,12.20
2022-09-12T00:14:31.496Z,12.63
2022-09-12T00:15:17.999Z,11.77
2022-09-12T00:15:52.186Z,11.30
2022-09-12T00:16:38.530Z,11.23
2022-09-12T00:18:03.899Z,11.50
2022-09-12T00:18:57.698Z,11.32
2022-09-12T00:19:35.612Z,11.93
2022-09-12T00:20:13.474Z,11.48
2022-09-12T00:20:56.721Z,12.60
2022-09-12T00:21:40.387Z,12.40
2022-09-12T00:22:15.360Z,13.30
2022-09-12T00:22:49.018Z,13.00
2022-09-12T00:23:28.493Z,12.63
2022-09-12T00:24:11.937Z,13.45
2022-09-12T00:24:49.239Z,13.88
2022-09-12T00:25:29.666Z,13.40
2022-09-12T00:26:12.899Z,14.57
2022-09-12T00:26:53.817Z,13.95
2022-09-12T00:27:31.209Z,12.18
2022-09-12T00:28:12.189Z,14.45
2022-09-12T00:28:56.048Z,13.82
2022-09-12T00:29:34.202Z,13.73
2022-09-12T00:30:09.380Z,13.68
2022-09-12T00:30:45.259Z,13.70
2022-09-12T00:31:23.520Z,13.18
2022-09-12T00:32:00.022Z,13.50
2022-09-12T00:32:39.771Z,13.63
2022-09-12T00:33:13.965Z,14.02
2022-09-12T00:33:50.853Z,13.75
2022-09-12T00:34:24.704Z,14.57
2022-09-12T00:35:23.902Z,14.98
2022-09-12T00:36:00.767Z,14.82
2022-09-12T00:36:32.462Z,14.52
2022-09-12T00:37:21.556Z,13.70
2022-09-12T00:37:55.591Z,13.85
2022-09-12T00:38:27.301Z,13.52
2022-09-12T00:39:07.467Z,13.50
2022-09-12T00:39:39.523Z,13.68
2022-09-12T00:40:17.184Z,14.75
2022-09-12T00:40:53.789Z,13.90
2022-09-12T00:41:31.414Z,14.57
2022-09-12T00:42:13.592Z,14.45
2022-09-12T00:42:45.385Z,15.63
2022-09-12T00:43:41.243Z,15.48
2022-09-12T00:44:20.864Z,14.65
2022-09-12T00:44:54.080Z,15.70
2022-09-12T00:45:39.557Z,15.00
2022-09-12T00:46:31.119Z,16.25
2022-09-12T00:47:15.448Z,15.82
2022-09-12T00:48:06.248Z,16.88
2022-09-12T00:49:15.421Z,14.32
2022-09-12T00:50:03.306Z,15.73
2022-09-12T00:50:42.377Z,15.40
2022-09-12T00:51:23.323Z,15.50
2022-09-12T00:52:28.811Z,14.95
2022-09-12T00:53:20.801Z,15.23
2022-09-12T00:53:57.129Z,14.30
2022-09-12T00:54:42.527Z,14.80
2022-09-12T00:55:32.701Z,15.85
2022-09-12T00:56:11.779Z,14.80
2022-09-12T00:56:47.218Z,14.93
2022-09-12T00:57:27.383Z,15.80
2022-09-12T00:58:13.698Z,16.15
2022-09-12T00:59:10.530Z,15.00
2022-09-12T01:00:04.860Z,15.05
2022-09-12T01:00:41.626Z,14.77
2022-09-12T01:01:18.323Z,15.33
2022-09-12T01:01:55.616Z,15.80
2022-09-12T01:02:32.828Z,16.50
2022-09-12T01:03:12.582Z,17.42
2022-09-12T01:03:44.798Z,16.10
2022-09-12T01:04:21.956Z,16.75
2022-09-12T01:04:59.619Z,16.48
2022-09-12T01:05:45.457Z,17.00
2022-09-12T01:06:35.385Z,17.25
2022-09-12T01:07:21.719Z,15.50
2022-09-12T01:08:05.727Z,16.73
2022-09-12T01:08:41.304Z,17.35
2022-09-12T01:09:26.875Z,16.48
2022-09-12T01:10:09.873Z,17.08
2022-09-12T01:10:52.616Z,15.65
2022-09-12T01:11:32.700Z,15.50
2022-09-12T01:12:11.012Z,17.02
2022-09-12T01:12:46.277Z,16.10
2022-09-12T01:13:26.322Z,16.20
2022-09-12T01:14:03.699Z,16.00
2022-09-12T01:14:38.639Z,16.27
2022-09-12T01:15:30.233Z,15.75
2022-09-12T01:16:17.203Z,15.98
2022-09-12T01:16:52.793Z,16.88
2022-09-12T01:17:39.789Z,15.50
2022-09-12T01:18:32.090Z,16.30
2022-09-12T01:19:40.268Z,15.55
2022-09-12T01:20:33.159Z,15.63
2022-09-12T01:21:52.237Z,15.90
2022-09-12T01:22:57.285Z,15.05
2022-09-12T01:23:51.847Z,15.93
2022-09-12T01:24:44.149Z,14.95
2022-09-12T01:25:36.104Z,16.08
2022-09-12T01:27:20.833Z,17.00
2022-09-12T01:28:18.850Z,15.57
2022-09-12T01:29:15.618Z,14.68
2022-09-12T01:30:05.681Z,16.27
2022-09-12T01:30:59.394Z,15.23
2022-09-12T01:32:10.383Z,14.70
2022-09-12T01:33:29.345Z,14.00
2022-09-12T01:34:19.789Z,14.38
2022-09-12T01:35:04.371Z,14.88
2022-09-12T01:35:57.935Z,15.15
2022-09-12T01:37:22.176Z,15.68
2022-09-12T01:38:46.655Z,13.20
2022-09-12T01:39:37.265Z,13.07
2022-09-12T01:40:43.853Z,14.55
2022-09-12T01:41:37.341Z,14.63
2022-09-12T01:42:32.283Z,13.82
2022-09-12T01:43:27.297Z,13.20
2022-09-12T01:44:24.840Z,14.20
2022-09-12T01:45:23.168Z,14.35
2022-09-12T01:46:27.256Z,14.25
2022-09-12T01:47:32.121Z,15.93
2022-09-12T01:48:18.396Z,14.55
2022-09-12T01:49:06.086Z,13.30
2022-09-12T01:50:11.242Z,14.30
2022-09-12T01:51:11.012Z,14.52
2022-09-12T01:51:53.072Z,14.40
2022-09-12T01:52:54.088Z,15.07
2022-09-12T01:53:47.998Z,14.88
2022-09-12T01:54:26.189Z,14.30
2022-09-12T01:55:25.338Z,16.48
2022-09-12T01:56:21.718Z,16.65
2022-09-12T01:57:01.844Z,15.60
2022-09-12T01:59:11.623Z,15.75
2022-09-12T02:00:00.856Z,16.00
2022-09-12T02:00:46.858Z,15.98
2022-09-12T02:01:35.360Z,16.73
2022-09-12T02:02:21.820Z,15.80
2022-09-12T02:03:16.260Z,16.83
2022-09-12T02:03:57.879Z,15.55
2022-09-12T02:05:02.468Z,16.67
2022-09-12T02:05:41.600Z,15.15
2022-09-12T02:06:29.003Z,17.48
2022-09-12T02:07:35.940Z,17.48
2022-09-12T02:08:19.717Z,16.00
2022-09-12T02:09:04.891Z,15.82
2022-09-12T02:09:54.390Z,17.20
2022-09-12T02:10:38.334Z,14.82
2022-09-12T02:11:12.280Z,16.05
2022-09-12T02:11:52.529Z,17.85
2022-09-12T02:12:31.682Z,17.30
2022-09-12T02:13:39.804Z,17.02
2022-09-12T02:14:23.535Z,16.92
2022-09-12T02:15:07.292Z,16.77
2022-09-12T02:15:49.518Z,16.35
2022-09-12T02:16:45.383Z,16.42
2022-09-12T02:17:31.574Z,17.17
2022-09-12T02:18:10.812Z,15.98
2022-09-12T02:18:53.958Z,18.52
2022-09-12T02:19:47.866Z,16.75
2022-09-12T02:20:49.216Z,14.93
2022-09-12T02:21:35.950Z,16.17
2022-09-12T02:22:21.473Z,16.23
2022-09-12T02:23:04.804Z,15.35
2022-09-12T02:23:49.663Z,16.33
2022-09-12T02:24:31.882Z,16.77
2022-09-12T02:25:14.676Z,17.63
2022-09-12T02:25:56.727Z,16.52
2022-09-12T02:26:44.239Z,17.38
2022-09-12T02:27:31.832Z,16.48
2022-09-12T02:28:17.867Z,16.52
2022-09-12T02:28:54.121Z,16.75
2022-09-12T02:29:36.107Z,17.85
2022-09-12T02:30:13.638Z,17.67
2022-09-12T02:31:04.501Z,17.65
2022-09-12T02:31:52.088Z,16.95
2022-09-12T02:32:37.384Z,17.63
2022-09-12T02:33:26.779Z,16.67
2022-09-12T02:34:27.672Z,17.27
2022-09-12T02:35:34.402Z,18.67
2022-09-12T02:36:24.412Z,16.58
2022-09-12T02:37:13.419Z,17.05
2022-09-12T02:38:17.592Z,16.23
2022-09-12T02:38:52.528Z,16.88
2022-09-12T02:39:32.104Z,17.08
2022-09-12T02:40:10.330Z,15.82
2022-09-12T02:40:49.073Z,16.53
2022-09-12T02:41:36.264Z,16.38
2022-09-12T02:42:16.238Z,18.30
2022-09-12T02:42:50.984Z,17.90
2022-09-12T02:43:29.201Z,18.27
2022-09-12T02:44:08.447Z,18.77
2022-09-12T02:44:53.404Z,16.95
2022-09-12T02:45:32.160Z,17.63
2022-09-12T02:46:11.862Z,17.25
2022-09-12T02:46:53.799Z,17.38
2022-09-12T02:47:43.239Z,17.90
2022-09-12T02:48:36.867Z,16.92
2022-09-12T02:50:17.215Z,17.55
2022-09-12T02:50:55.845Z,17.70
2022-09-12T02:51:30.623Z,17.05
2022-09-12T02:52:08.020Z,17.75
2022-09-12T02:52:45.672Z,17.98
2022-09-12T02:53:22.950Z,18.00
2022-09-12T02:54:05.642Z,17.05
2022-09-12T02:54:46.270Z,17.63
2022-09-12T02:55:20.613Z,17.42
2022-09-12T02:56:00.724Z,17.77
2022-09-12T02:56:37.491Z,18.27
2022-09-12T02:57:22.579Z,18.50
2022-09-12T02:57:57.112Z,18.15
2022-09-12T02:58:33.872Z,18.60
2022-09-12T02:59:17.827Z,18.88
2022-09-12T03:00:05.013Z,18.73
2022-09-12T03:00:53.959Z,17.98
2022-09-12T03:01:27.945Z,17.93
2022-09-12T03:02:19.514Z,18.48
2022-09-12T03:03:05.920Z,17.90
2022-09-12T03:04:08.988Z,18.42
2022-09-12T03:05:25.672Z,17.08
2022-09-12T03:06:29.043Z,17.83
2022-09-12T03:08:57.899Z,17.00
2022-09-12T03:10:03.145Z,17.20
2022-09-12T03:11:21.295Z,16.40
2022-09-12T03:12:21.576Z,16.47
2022-09-12T03:13:01.175Z,17.10
2022-09-12T03:13:56.113Z,17.85
2022-09-12T03:14:55.076Z,18.17
2022-09-12T03:16:04.253Z,16.48
2022-09-12T03:17:23.993Z,15.90
2022-09-12T03:18:52.616Z,18.65
2022-09-12T03:21:20.233Z,16.55
2022-09-12T03:23:41.309Z,17.27
2022-09-12T03:24:49.159Z,17.67
2022-09-12T03:25:53.674Z,15.85
2022-09-12T03:27:01.097Z,17.48
2022-09-12T03:27:54.146Z,18.02
2022-09-12T03:28:35.362Z,17.70
2022-09-12T03:29:22.827Z,17.92
2022-09-12T03:30:07.897Z,18.02
2022-09-12T03:30:53.877Z,18.80
2022-09-12T03:31:28.053Z,16.40
2022-09-12T03:32:08.199Z,18.53
2022-09-12T03:32:47.474Z,18.00
2022-09-12T03:33:33.595Z,17.77
2022-09-12T03:34:15.447Z,17.77
2022-09-12T03:34:53.268Z,18.63
2022-09-12T03:35:25.692Z,18.75
2022-09-12T03:36:04.282Z,17.92
2022-09-12T03:36:41.097Z,18.42
2022-09-12T03:37:18.128Z,19.75
2022-09-12T03:37:53.270Z,17.88
2022-09-12T03:38:36.007Z,18.33
2022-09-12T03:39:12.836Z,18.30
2022-09-12T03:39:57.314Z,18.50
2022-09-12T03:40:49.315Z,18.63
2022-09-12T03:41:25.677Z,16.65
2022-09-12T03:42:12.616Z,16.95
2022-09-12T03:42:46.352Z,17.75
2022-09-12T03:43:37.232Z,18.05
2022-09-12T03:44:11.857Z,17.85
2022-09-12T03:44:53.396Z,17.80
2022-09-12T03:45:29.628Z,17.17
2022-09-12T03:46:01.365Z,18.98
2022-09-12T03:46:40.982Z,18.05
2022-09-12T03:47:15.653Z,18.90
2022-09-12T03:47:49.702Z,16.73
2022-09-12T03:48:26.868Z,17.42
2022-09-12T03:49:04.845Z,17.05
2022-09-12T03:49:53.800Z,17.05
2022-09-12T03:50:28.024Z,17.65
2022-09-12T03:51:14.990Z,16.02
2022-09-12T03:51:49.301Z,15.97
2022-09-12T03:52:28.350Z,16.90
2022-09-12T03:53:06.145Z,16.30
2022-09-12T03:53:40.584Z,17.40
2022-09-12T03:54:16.613Z,18.05
2022-09-12T03:54:55.934Z,17.95
2022-09-12T03:55:35.682Z,17.90
2022-09-12T03:56:18.628Z,17.38
2022-09-12T03:56:52.784Z,19.00
2022-09-12T03:57:31.321Z,17.58
2022-09-12T03:58:10.382Z,18.00
2022-09-12T03:58:58.048Z,18.08
2022-09-12T03:59:32.907Z,16.25
2022-09-12T04:00:19.052Z,16.70
2022-09-12T04:00:56.588Z,17.45
2022-09-12T04:01:30.515Z,17.40
2022-09-12T04:02:17.189Z,17.90
2022-09-12T04:02:50.760Z,17.80
2022-09-12T04:03:30.507Z,17.10
2022-09-12T04:04:04.712Z,16.05
2022-09-12T04:04:53.602Z,16.87
2022-09-12T04:05:37.533Z,16.52
2022-09-12T04:06:10.637Z,15.82
2022-09-12T04:06:49.532Z,18.05
2022-09-12T04:07:25.151Z,15.80
2022-09-12T04:08:09.432Z,15.88
2022-09-12T04:08:44.876Z,15.43
2022-09-12T04:09:17.576Z,16.48
2022-09-12T04:09:53.827Z,16.63
2022-09-12T04:10:28.271Z,15.98
2022-09-12T04:11:15.212Z,16.77
2022-09-12T04:11:49.284Z,17.15
2022-09-12T04:12:34.050Z,17.08
2022-09-12T04:13:14.612Z,17.98
2022-09-12T04:13:52.419Z,16.95
2022-09-12T04:14:28.876Z,18.35
2022-09-12T04:15:16.160Z,18.02
2022-09-12T04:16:09.481Z,17.10
2022-09-12T04:16:50.689Z,18.55
2022-09-12T04:17:25.292Z,18.85
2022-09-12T04:18:30.351Z,18.63
2022-09-12T04:19:06.638Z,17.77
2022-09-12T04:19:50.369Z,18.23
2022-09-12T04:20:28.392Z,16.95
2022-09-12T04:21:07.082Z,17.52
2022-09-12T04:21:45.550Z,16.05
2022-09-12T04:22:22.607Z,17.00
2022-09-12T04:23:05.793Z,15.98
2022-09-12T04:23:44.798Z,15.70
2022-09-12T04:24:19.225Z,15.40
2022-09-12T04:25:00.404Z,15.20
2022-09-12T04:25:36.548Z,13.95
2022-09-12T04:26:16.515Z,14.40
2022-09-12T04:27:07.748Z,16.10
2022-09-12T04:27:47.319Z,14.02
2022-09-12T04:28:37.535Z,16.17
2022-09-12T04:29:23.417Z,13.98
2022-09-12T04:30:10.438Z,15.82
2022-09-12T04:30:44.373Z,15.15
2022-09-12T04:31:27.473Z,15.90
2022-09-12T04:32:01.678Z,16.50
2022-09-12T04:32:40.833Z,14.82
2022-09-12T04:33:12.342Z,16.02
2022-09-12T04:33:47.158Z,16.05
2022-09-12T04:34:18.806Z,17.13
2022-09-12T04:34:52.304Z,17.23
2022-09-12T04:35:24.043Z,18.08
2022-09-12T04:35:55.685Z,16.40
2022-09-12T04:36:28.765Z,17.67
2022-09-12T04:37:00.569Z,16.48
2022-09-12T04:37:32.029Z,16.03
2022-09-12T04:38:03.575Z,15.23
2022-09-12T04:38:36.502Z,16.75
2022-09-12T04:39:08.345Z,16.65
2022-09-12T04:39:40.003Z,15.93
2022-09-12T04:40:11.591Z,16.98
2022-09-12T04:40:43.368Z,15.80
2022-09-12T04:41:18.472Z,16.65
2022-09-12T04:41:50.121Z,16.38
2022-09-12T04:42:23.074Z,17.05
2022-09-12T04:42:56.189Z,17.77
2022-09-12T04:43:28.165Z,18.02
2022-09-12T04:44:04.897Z,16.67
2022-09-12T04:44:38.700Z,18.60
2022-09-12T04:45:10.560Z,17.35
2022-09-12T04:45:42.104Z,18.27
2022-09-12T04:46:16.673Z,18.05
2022-09-12T04:46:48.300Z,18.40
2022-09-12T04:47:20.165Z,19.30
2022-09-12T04:47:52.453Z,17.20
2022-09-12T04:48:27.089Z,18.60
2022-09-12T04:48:58.733Z,18.13
2022-09-12T04:49:30.246Z,19.20
2022-09-12T04:50:01.914Z,19.70
2022-09-12T04:50:33.538Z,21.05
2022-09-12T04:51:14.774Z,19.02
2022-09-12T04:51:49.314Z,18.23
2022-09-12T04:52:27.688Z,19.83
2022-09-12T04:53:08.866Z,19.85
2022-09-12T04:53:45.759Z,20.13
2022-09-12T04:54:22.169Z,19.53
2022-09-12T04:54:56.759Z,20.02
2022-09-12T04:55:35.752Z,20.73
2022-09-12T04:56:14.415Z,19.58
2022-09-12T04:56:48.928Z,18.55
2022-09-12T04:57:20.732Z,19.23
2022-09-12T04:57:52.999Z,19.67
2022-09-12T04:58:26.190Z,19.35
2022-09-12T04:59:09.736Z,20.35
2022-09-12T04:59:41.491Z,18.48
2022-09-12T05:00:16.052Z,18.83
2022-09-12T05:00:49.701Z,19.23
2022-09-12T05:01:22.995Z,18.40
2022-09-12T05:01:56.025Z,18.25
2022-09-12T05:02:28.976Z,19.50
2022-09-12T05:03:02.681Z,17.95
2022-09-12T05:03:34.743Z,18.27
2022-09-12T05:04:06.344Z,18.35
2022-09-12T05:04:40.738Z,18.52
2022-09-12T05:05:12.573Z,18.13
2022-09-12T05:05:44.312Z,18.43
2022-09-12T05:06:19.236Z,18.27
2022-09-12T05:06:50.744Z,18.25
2022-09-12T05:07:28.376Z,17.83
2022-09-12T05:08:00.092Z,18.13
2022-09-12T05:08:31.754Z,19.00
2022-09-12T05:09:05.385Z,17.63
2022-09-12T05:09:42.451Z,18.13
2022-09-12T05:10:18.191Z,18.70
2022-09-12T05:10:54.433Z,18.02
2022-09-12T05:12:02.158Z,19.07
2022-09-12T05:42:56.133Z,22.67
2022-09-12T05:43:27.694Z,24.17
2022-09-12T05:44:07.091Z,25.15
2022-09-12T05:44:38.580Z,23.92
2022-09-12T05:45:10.175Z,23.27
2022-09-12T05:45:42.138Z,24.33
2022-09-12T05:46:16.409Z,23.80
2022-09-12T05:46:50.778Z,24.55
2022-09-12T05:57:12.865Z,24.23
2022-09-12T06:32:12.186Z,27.22
2022-09-12T06:32:43.623Z,30.30
2022-09-12T06:33:15.587Z,29.73
2022-09-12T06:33:49.986Z,26.92
2022-09-12T06:34:21.446Z,28.77
2022-09-12T06:34:52.830Z,29.80
2022-09-12T06:37:25.797Z,28.50
2022-09-12T06:37:57.179Z,28.40
2022-09-12T06:39:48.772Z,27.90
2022-09-12T06:40:20.345Z,29.38
2022-09-12T06:41:32.476Z,29.02
2022-09-12T06:42:03.969Z,29.50
2022-09-12T06:42:35.447Z,29.17
2022-09-12T06:43:07.015Z,30.17
2022-09-12T06:43:39.905Z,29.70
2022-09-12T06:44:17.818Z,31.48
2022-09-12T06:44:50.422Z,33.03
2022-09-12T06:45:22.778Z,31.08
2022-09-12T06:45:54.289Z,31.48
2022-09-12T06:46:27.105Z,31.83
2022-09-12T06:46:58.754Z,31.33
2022-09-12T06:47:30.242Z,29.87
2022-09-12T06:48:02.655Z,32.50
2022-09-12T06:48:38.325Z,31.95
2022-09-12T06:49:13.352Z,32.28
2022-09-12T06:49:44.771Z,30.60
2022-09-12T06:50:16.264Z,30.08
2022-09-12T06:51:02.403Z,30.95
2022-09-12T06:51:36.210Z,29.52
2022-09-12T06:52:07.605Z,29.50
2022-09-12T06:52:39.058Z,28.52
2022-09-12T06:53:10.471Z,30.43
2022-09-12T06:53:44.212Z,32.47
2022-09-12T06:54:17.019Z,30.15
2022-09-12T06:54:49.086Z,31.05
2022-09-12T06:55:23.573Z,30.50
2022-09-12T06:56:00.713Z,29.83
2022-09-12T06:56:32.241Z,32.80
2022-09-12T06:57:03.854Z,29.33
2022-09-12T06:57:36.976Z,31.30
2022-09-12T06:58:08.438Z,29.40
2022-09-12T06:58:40.964Z,29.63
2022-09-12T06:59:12.746Z,30.05
2022-09-12T06:59:44.825Z,29.38
2022-09-12T07:00:16.371Z,33.90
2022-09-12T07:00:47.790Z,31.67
2022-09-12T07:01:21.946Z,32.95
2022-09-12T07:01:53.532Z,32.72
2022-09-12T07:02:25.745Z,32.80
2022-09-12T07:02:57.224Z,33.30
2022-09-12T07:03:29.138Z,32.13
2022-09-12T07:04:03.821Z,35.20
2022-09-12T07:04:36.618Z,32.90
2022-09-12T07:05:09.093Z,35.22
2022-09-12T07:05:40.500Z,35.67
2022-09-12T07:06:13.767Z,33.95
2022-09-12T07:06:45.167Z,34.90
2022-09-12T07:07:16.755Z,34.22
2022-09-12T07:08:00.267Z,34.97
2022-09-12T07:08:37.140Z,31.70
2022-09-12T07:09:18.477Z,34.55
2022-09-12T07:09:52.541Z,32.40
2022-09-12T07:10:31.309Z,34.42
2022-09-12T07:11:20.807Z,34.88
2022-09-12T07:11:52.227Z,32.30
2022-09-12T07:12:23.599Z,33.70
2022-09-12T07:12:55.041Z,33.40
2022-09-12T07:13:27.150Z,34.00
2022-09-12T07:14:03.198Z,34.85
2022-09-12T07:14:34.679Z,35.35
2022-09-12T07:15:06.684Z,35.83
2022-09-12T07:15:38.233Z,34.90
2022-09-12T07:16:17.311Z,32.83
2022-09-12T07:16:50.804Z,33.72
2022-09-12T07:17:22.256Z,35.88
2022-09-12T07:17:54.523Z,34.85
2022-09-12T07:18:26.061Z,35.53
2022-09-12T07:19:02.364Z,35.00
2022-09-12T07:19:37.013Z,35.70
2022-09-12T07:20:08.712Z,35.97
2022-09-12T07:20:40.673Z,36.10
2022-09-12T07:21:14.869Z,34.27
2022-09-12T07:21:46.352Z,34.53
2022-09-12T07:22:17.711Z,35.42
2022-09-12T07:22:50.575Z,34.50
2022-09-12T07:23:21.969Z,36.67
2022-09-12T07:23:55.237Z,34.60
2022-09-12T07:24:27.168Z,35.25
2022-09-12T07:24:59.025Z,35.70
2022-09-12T07:25:30.462Z,35.17
2022-09-12T07:26:02.562Z,36.05
2022-09-12T07:26:34.525Z,35.27
2022-09-12T07:27:05.887Z,35.33
2022-09-12T07:27:37.743Z,35.70
2022-09-12T07:28:09.137Z,35.42
2022-09-12T07:28:40.998Z,35.97
2022-09-12T07:30:08.643Z,34.75
2022-09-12T07:30:40.468Z,34.25
2022-09-12T07:31:17.671Z,34.30
2022-09-12T07:31:49.595Z,35.33
2022-09-12T07:32:23.538Z,33.87
2022-09-12T07:32:55.062Z,34.33
2022-09-12T07:33:29.598Z,35.25
2022-09-12T07:34:08.251Z,35.72
2022-09-12T07:34:40.622Z,37.17
2022-09-12T07:35:12.159Z,34.15
2022-09-12T07:35:47.692Z,34.55
2022-09-12T07:36:23.493Z,35.17
2022-09-12T07:36:58.101Z,37.95
2022-09-12T07:37:32.202Z,37.13
2022-09-12T07:38:04.073Z,36.93
2022-09-12T07:38:35.533Z,35.45
2022-09-12T07:39:06.958Z,35.65
2022-09-12T07:39:38.614Z,35.13
2022-09-12T07:40:11.802Z,36.92
2022-09-12T07:40:43.895Z,35.40
2022-09-12T07:41:21.629Z,34.63
2022-09-12T07:41:53.157Z,33.13
2022-09-12T07:42:24.696Z,35.15
2022-09-12T07:42:58.605Z,33.70
2022-09-12T07:43:34.023Z,34.17
2022-09-12T07:44:10.690Z,34.60
2022-09-12T07:44:42.237Z,33.92
2022-09-12T07:45:13.815Z,34.92
2022-09-12T07:45:45.272Z,34.90
2022-09-12T07:46:16.791Z,35.83
2022-09-12T07:46:48.171Z,32.33
2022-09-12T07:47:22.591Z,33.80
2022-09-12T07:47:59.276Z,34.42
2022-09-12T07:48:30.870Z,33.53
2022-09-12T07:49:03.250Z,34.83
2022-09-12T07:49:35.124Z,32.83
2022-09-12T07:50:07.071Z,33.35
2022-09-12T07:50:42.026Z,34.08
2022-09-12T07:51:17.439Z,32.90
2022-09-12T07:51:50.780Z,31.95
2022-09-12T07:52:22.255Z,33.83
2022-09-12T07:52:55.047Z,33.03
2022-09-12T07:53:30.761Z,35.38
2022-09-12T07:54:07.104Z,34.40
2022-09-12T07:54:38.760Z,33.37
2022-09-12T07:55:10.162Z,31.65
2022-09-12T07:55:41.720Z,33.22
2022-09-12T07:56:13.709Z,32.00
2022-09-12T07:56:45.792Z,33.78
2022-09-12T07:57:17.268Z,31.58
2022-09-12T07:57:53.827Z,34.17
2022-09-12T07:58:25.640Z,33.70
2022-09-12T07:58:57.245Z,33.08
2022-09-12T07:59:50.914Z,33.22
2022-09-12T08:00:20.330Z,31.23
2022-09-12T08:00:54.268Z,31.58
2022-09-12T08:01:26.458Z,32.47
2022-09-12T08:02:06.603Z,32.47
2022-09-12T08:02:39.517Z,31.13
2022-09-12T08:03:11.102Z,31.48
2022-09-12T08:03:44.715Z,31.40
2022-09-12T08:04:18.512Z,32.88
2022-09-12T08:04:51.439Z,30.70
2022-09-12T08:05:23.103Z,31.65
2022-09-12T08:05:54.834Z,31.47
2022-09-12T08:06:38.681Z,31.77
2022-09-12T08:07:15.950Z,30.08
2022-09-12T08:07:47.610Z,31.77
2022-09-12T08:08:18.984Z,32.30
2022-09-12T08:08:51.687Z,32.40
2022-09-12T08:09:23.078Z,31.70
2022-09-12T08:09:54.524Z,30.92
2022-09-12T08:10:25.962Z,32.30
2022-09-12T08:10:59.865Z,31.75
2022-09-12T08:11:31.339Z,31.20
2022-09-12T08:12:03.284Z,32.10
2022-09-12T08:12:35.171Z,31.25
2022-09-12T08:13:08.755Z,32.58
2022-09-12T08:13:43.036Z,31.88
2022-09-12T08:14:14.577Z,30.85
2022-09-12T08:14:46.543Z,28.77
2022-09-12T08:15:17.929Z,31.73
2022-09-12T08:15:49.414Z,32.00
2022-09-12T08:16:22.237Z,29.27
2022-09-12T08:16:53.661Z,30.90
2022-09-12T08:17:25.082Z,30.15
2022-09-12T08:17:56.456Z,31.92
2022-09-12T08:18:29.639Z,32.15
2022-09-12T08:19:02.435Z,30.30
2022-09-12T08:19:33.872Z,28.90
2022-09-12T08:20:05.733Z,29.58
2022-09-12T08:20:37.446Z,31.67
2022-09-12T08:21:23.998Z,30.17
2022-09-12T08:21:55.358Z,32.45
2022-09-12T08:22:26.729Z,31.70
2022-09-12T08:22:58.154Z,30.40
2022-09-12T08:23:30.255Z,30.00
2022-09-12T08:24:04.071Z,30.40
2022-09-12T08:24:35.542Z,31.23
2022-09-12T08:25:07.429Z,29.35
2022-09-12T08:25:38.819Z,31.02
2022-09-12T08:26:11.499Z,28.35
2022-09-12T08:26:43.234Z,30.08
2022-09-12T08:27:14.855Z,29.70
2022-09-12T08:27:46.876Z,30.43
2022-09-12T08:28:18.337Z,28.98
2022-09-12T08:28:50.003Z,30.08
2022-09-12T08:29:21.506Z,29.60
2022-09-12T08:29:53.660Z,29.23
2022-09-12T08:30:25.097Z,28.35
2022-09-12T08:31:12.987Z,29.88
2022-09-12T08:31:44.554Z,30.13
2022-09-12T08:32:15.974Z,30.15
2022-09-12T08:32:47.354Z,28.38
2022-09-12T08:33:19.403Z,28.40
2022-09-12T08:33:51.178Z,27.77
2022-09-12T08:34:22.721Z,29.02
2022-09-12T08:34:54.118Z,27.42
2022-09-12T08:35:25.432Z,29.67
2022-09-12T08:36:05.678Z,27.58
2022-09-12T08:36:37.069Z,27.98
2022-09-12T08:37:08.448Z,27.10
2022-09-12T08:37:40.528Z,28.08
2022-09-12T08:38:11.940Z,28.60
2022-09-12T08:38:45.646Z,27.23
2022-09-12T08:39:17.118Z,27.90
2022-09-12T08:39:48.613Z,28.60
2022-09-12T08:40:20.134Z,30.15
2022-09-12T08:41:01.007Z,28.55
2022-09-12T08:41:35.320Z,27.80
2022-09-12T08:42:07.310Z,27.13
2022-09-12T08:42:55.506Z,27.55
2022-09-12T08:43:52.022Z,28.08
2022-09-12T08:44:49.595Z,25.60
2022-09-12T08:45:34.670Z,24.93
2022-09-12T08:46:18.379Z,25.73
2022-09-12T08:47:10.758Z,24.08
2022-09-12T08:47:45.438Z,24.75
2022-09-12T08:48:16.883Z,23.90
2022-09-12T08:48:48.710Z,21.95
2022-09-12T08:49:31.066Z,22.60
2022-09-12T08:50:08.777Z,23.23
2022-09-12T08:50:49.251Z,24.20
2022-09-12T08:51:21.988Z,23.77
2022-09-12T08:51:55.167Z,25.33
2022-09-12T08:52:35.923Z,24.25
2022-09-12T08:53:15.918Z,24.33
2022-09-12T08:53:51.287Z,23.65
2022-09-12T08:54:28.775Z,24.05
2022-09-12T08:55:04.110Z,23.27
2022-09-12T08:55:38.164Z,22.67
2022-09-12T08:56:11.769Z,24.23
2022-09-12T08:56:43.391Z,22.73
2022-09-12T08:57:15.406Z,22.42
2022-09-12T08:57:46.821Z,23.93
2022-09-12T08:58:22.571Z,22.90
2022-09-12T08:58:53.975Z,23.10
2022-09-12T08:59:25.643Z,22.70
2022-09-12T08:59:57.192Z,23.40
2022-09-12T09:00:38.436Z,21.73
2022-09-12T09:01:19.079Z,22.45
2022-09-12T09:01:55.424Z,23.35
2022-09-12T09:02:57.253Z,22.13
2022-09-12T09:03:53.210Z,21.98
2022-09-12T09:04:31.020Z,20.77
2022-09-12T09:05:17.790Z,20.73
2022-09-12T09:05:59.178Z,19.98
2022-09-12T09:07:01.478Z,22.05
2022-09-12T09:07:54.951Z,20.20
2022-09-12T09:08:46.239Z,21.13
2022-09-12T09:09:32.789Z,20.70
2022-09-12T09:10:18.099Z,20.55
2022-09-12T09:11:13.960Z,21.02
2022-09-12T09:12:15.811Z,18.35
2022-09-12T09:13:12.115Z,19.90
2022-09-12T09:14:40.655Z,19.75
2022-09-12T09:15:26.932Z,19.63
2022-09-12T09:16:31.187Z,18.80
2022-09-12T09:17:03.268Z,19.30
2022-09-12T09:17:41.424Z,19.92
2022-09-12T09:18:23.228Z,19.48
2022-09-12T09:18:58.696Z,20.45
2022-09-12T09:19:40.686Z,19.92
2022-09-12T09:20:49.575Z,20.15
2022-09-12T09:21:38.265Z,20.27
2022-09-12T09:22:36.283Z,19.98
2022-09-12T09:23:22.195Z,19.88
2022-09-12T09:24:07.726Z,19.95
2022-09-12T09:24:53.749Z,20.52
2022-09-12T09:25:36.850Z,19.75
2022-09-12T09:26:17.767Z,20.02
2022-09-12T09:27:01.992Z,19.95
2022-09-12T09:28:04.410Z,19.80
2022-09-12T09:28:42.310Z,19.17
2022-09-12T09:29:22.550Z,19.23
2022-09-12T09:29:56.001Z,18.35
2022-09-12T09:30:28.622Z,19.45
2022-09-12T09:31:00.137Z,19.70
2022-09-12T09:31:37.711Z,19.10
2022-09-12T09:32:18.183Z,18.60
2022-09-12T09:32:54.098Z,19.05
2022-09-12T09:33:30.830Z,19.58
2022-09-12T09:34:13.000Z,19.05
2022-09-12T09:34:44.730Z,19.10
2022-09-12T09:35:24.847Z,18.63
2022-09-12T09:36:12.117Z,19.02
2022-09-12T09:36:50.993Z,18.95
2022-09-12T09:37:38.819Z,17.27
2022-09-12T09:38:25.417Z,18.35
2022-09-12T09:39:05.715Z,17.25
2022-09-12T09:39:49.100Z,17.00
2022-09-12T09:40:23.472Z,17.00
2022-09-12T09:41:17.098Z,16.48
2022-09-12T09:42:08.078Z,15.85
2022-09-12T09:42:51.576Z,16.80
2022-09-12T09:43:27.398Z,14.48
2022-09-12T09:43:59.852Z,14.68
2022-09-12T09:44:31.590Z,16.20
2022-09-12T09:45:11.970Z,17.50
2022-09-12T09:45:47.268Z,16.23
2022-09-12T09:46:19.549Z,16.25
2022-09-12T09:46:55.525Z,16.27
2022-09-12T09:47:27.015Z,16.40
2022-09-12T09:48:06.079Z,15.75
2022-09-12T09:48:41.911Z,16.90
2022-09-12T09:49:16.352Z,16.60
2022-09-12T09:49:47.812Z,16.33
2022-09-12T09:50:19.416Z,16.77
2022-09-12T09:50:51.370Z,16.27
2022-09-12T09:51:35.999Z,15.77
2022-09-12T09:52:08.568Z,15.25
2022-09-12T09:52:40.661Z,18.27
2022-09-12T09:53:29.495Z,17.02
2022-09-12T09:54:21.327Z,15.68
2022-09-12T09:54:58.354Z,16.70
2022-09-12T09:55:39.839Z,16.38
2022-09-12T09:56:35.112Z,15.38
2022-09-12T09:57:35.495Z,15.73
2022-09-12T09:58:06.905Z,14.77
2022-09-12T09:58:41.540Z,15.15
2022-09-12T09:59:19.015Z,14.98
2022-09-12T09:59:50.394Z,16.38
2022-09-12T10:00:21.982Z,15.57
2022-09-12T10:00:59.988Z,16.30
2022-09-12T10:01:31.531Z,16.03